Time;durP1;ratioP1;P1;durP2;ratioP2;P2;SDS_P1;SDS_P2;PMS_P1;PMS_P2;Temp;Humidity;BMP_temperature;BMP_pressure;BME280_temperature;BME280_humidity;BME280_pressure;Samples;Min_cycle;Max_cycle;Signal;HPM_P1;HPM_P2
2022/06/11 00:01:06;;;;;;;2.72;2.03;;;22.70;96.70;;;;;;5067315;28;20120;-80
2022/06/11 00:03:34;;;;;;;4.53;2.60;;;22.80;96.70;;;;;;5075939;28;20109;-81
2022/06/11 00:06:03;;;;;;;5.05;2.42;;;22.70;96.70;;;;;;5072212;28;20086;-80
2022/06/11 00:08:33;;;;;;;6.35;2.47;;;22.50;96.70;;;;;;5073323;28;20139;-80
2022/06/11 00:11:01;;;;;;;4.40;2.50;;;22.60;96.70;;;;;;5077429;28;20044;-80
2022/06/11 00:13:30;;;;;;;4.38;2.50;;;22.60;96.70;;;;;;5075350;28;20040;-81
2022/06/11 00:15:58;;;;;;;5.07;2.42;;;22.50;96.70;;;;;;5071938;28;20771;-80
2022/06/11 00:18:26;;;;;;;4.10;1.83;;;22.60;96.70;;;;;;5072677;28;20082;-80
2022/06/11 00:20:54;;;;;;;5.07;1.85;;;22.60;96.70;;;;;;5071711;28;20261;-80
2022/06/11 00:23:23;;;;;;;3.28;2.03;;;22.70;96.70;;;;;;5074038;28;20122;-80
2022/06/11 00:25:52;;;;;;;3.42;1.98;;;22.70;96.70;;;;;;5077148;28;20056;-80
2022/06/11 00:28:21;;;;;;;3.25;1.48;;;22.60;96.70;;;;;;5078734;28;20051;-81
2022/06/11 00:30:49;;;;;;;3.75;1.60;;;22.50;96.70;;;;;;5075880;28;20500;-80
2022/06/11 00:33:17;;;;;;;4.25;1.70;;;22.50;96.70;;;;;;5083101;28;20048;-80
2022/06/11 00:35:46;;;;;;;4.25;1.25;;;22.30;96.70;;;;;;5078712;28;20127;-80
2022/06/11 00:38:15;;;;;;;3.92;1.60;;;22.20;96.70;;;;;;5081955;28;20418;-80
2022/06/11 00:40:46;;;;;;;2.88;1.25;;;22.30;96.70;;;;;;5085641;28;20946;-80
2022/06/11 00:43:18;;;;;;;2.90;1.40;;;22.30;96.70;;;;;;5065262;28;20055;-80
2022/06/11 00:45:56;;;;;;;4.47;1.48;;;22.20;96.70;;;;;;5083532;28;20409;-80
2022/06/11 00:48:30;;;;;;;5.03;1.27;;;22.10;96.70;;;;;;5062464;28;20044;-81
2022/06/11 00:51:02;;;;;;;3.83;1.60;;;22.00;96.70;;;;;;5080989;28;20064;-80
2022/06/11 00:53:35;;;;;;;2.28;1.23;;;22.00;96.70;;;;;;5078316;28;20469;-80
2022/06/11 00:56:10;;;;;;;4.13;1.58;;;22.00;96.70;;;;;;5059166;28;20072;-80
2022/06/11 00:58:45;;;;;;;2.13;1.27;;;21.90;96.70;;;;;;5078032;28;20147;-80
2022/06/11 01:01:16;;;;;;;2.90;1.30;;;21.90;96.70;;;;;;5077058;28;20070;-80
2022/06/11 01:03:47;;;;;;;1.48;1.00;;;21.80;96.70;;;;;;5082074;28;20159;-80
2022/06/11 01:06:21;;;;;;;2.30;1.20;;;21.70;96.70;;;;;;5058134;28;20517;-80
2022/06/11 01:08:59;;;;;;;3.13;1.17;;;21.70;96.70;;;;;;5063114;28;20060;-80
2022/06/11 01:11:47;;;;;;;1.08;0.70;;;21.70;96.70;;;;;;5084377;28;20052;-79
2022/06/11 01:14:36;;;;;;;3.65;1.10;;;21.60;96.70;;;;;;5078557;28;20668;-80
2022/06/11 01:17:14;;;;;;;2.30;1.20;;;21.60;96.70;;;;;;5073234;28;20056;-80
2022/06/11 01:20:01;;;;;;;3.63;1.10;;;21.70;96.70;;;;;;5075928;28;20052;-80
2022/06/11 01:23:01;;;;;;;2.95;1.10;;;21.60;96.70;;;;;;5074822;28;20101;-80
2022/06/11 01:25:33;;;;;;;2.42;0.98;;;21.40;96.70;;;;;;5076990;28;20129;-79
2022/06/11 01:28:38;;;;;;;3.05;1.10;;;21.50;96.70;;;;;;5079293;28;20589;-80
2022/06/11 01:31:13;;;;;;;4.20;1.08;;;21.40;96.70;;;;;;5069928;28;20048;-79
2022/06/11 01:33:46;;;;;;;4.13;1.10;;;21.50;96.70;;;;;;5079498;28;20048;-80
2022/06/11 01:36:19;;;;;;;3.10;1.08;;;21.70;96.70;;;;;;5092946;27;20421;-79
2022/06/11 01:38:52;;;;;;;1.63;0.90;;;21.60;96.70;;;;;;5077056;28;20568;-79
2022/06/11 01:41:28;;;;;;;2.28;1.10;;;21.50;96.70;;;;;;5081050;28;20048;-79
2022/06/11 01:44:03;;;;;;;2.37;1.00;;;21.50;96.70;;;;;;5062866;28;20092;-81
2022/06/11 01:46:37;;;;;;;1.80;1.10;;;21.40;96.70;;;;;;5075931;28;20504;-79
2022/06/11 01:49:07;;;;;;;3.80;1.00;;;21.40;96.70;;;;;;5078023;28;20052;-79
2022/06/11 01:51:48;;;;;;;3.20;1.10;;;21.40;96.70;;;;;;5072608;28;20647;-80
2022/06/11 01:54:26;;;;;;;5.05;1.33;;;21.30;96.70;;;;;;5078955;28;20123;-79
2022/06/11 01:57:28;;;;;;;5.57;1.35;;;21.20;96.70;;;;;;5075688;28;20774;-79
2022/06/11 02:00:11;;;;;;;2.00;1.20;;;21.10;96.70;;;;;;5074716;28;20452;-79
2022/06/11 02:03:14;;;;;;;2.17;1.10;;;21.10;96.70;;;;;;5056168;28;20052;-79
2022/06/11 02:05:52;;;;;;;2.35;0.90;;;21.20;96.70;;;;;;5073340;28;20528;-79
2022/06/11 02:08:28;;;;;;;3.97;1.10;;;21.30;96.70;;;;;;5095163;27;20476;-79
2022/06/11 02:11:01;;;;;;;2.38;1.10;;;21.30;96.70;;;;;;5078573;28;20047;-80
2022/06/11 02:13:38;;;;;;;2.47;1.00;;;21.30;96.70;;;;;;5088461;28;20043;-80
2022/06/11 02:16:12;;;;;;;3.22;1.02;;;21.20;96.70;;;;;;5073239;28;20054;-80
2022/06/11 02:18:45;;;;;;;3.33;1.20;;;21.00;96.70;;;;;;5074790;28;20497;-79
2022/06/11 02:21:17;;;;;;;1.45;1.00;;;20.90;96.70;;;;;;5072281;28;20405;-80
2022/06/11 02:23:49;;;;;;;2.45;0.80;;;21.00;96.70;;;;;;5065385;28;20052;-79
2022/06/11 02:26:22;;;;;;;4.85;0.95;;;20.90;96.70;;;;;;5078918;28;20052;-80
2022/06/11 02:28:51;;;;;;;2.15;0.82;;;20.90;96.70;;;;;;5072860;28;20040;-79
2022/06/11 02:31:23;;;;;;;1.42;0.93;;;20.90;96.70;;;;;;5074891;28;20082;-80
2022/06/11 02:33:53;;;;;;;1.20;0.80;;;20.90;96.70;;;;;;5059002;28;20040;-80
2022/06/11 02:36:27;;;;;;;2.60;1.23;;;20.90;96.70;;;;;;5084423;28;20396;-80
2022/06/11 02:38:57;;;;;;;2.95;1.17;;;20.80;96.70;;;;;;5077238;28;20588;-79
2022/06/11 02:41:28;;;;;;;2.50;1.20;;;20.80;96.70;;;;;;5077423;28;20584;-79
2022/06/11 02:43:57;;;;;;;1.83;0.80;;;20.80;96.70;;;;;;5085486;28;20059;-79
2022/06/11 02:46:43;;;;;;;1.92;0.90;;;20.90;96.70;;;;;;5081274;28;20496;-79
2022/06/11 02:49:16;;;;;;;3.08;1.10;;;20.90;96.70;;;;;;5081301;28;20493;-79
2022/06/11 02:51:46;;;;;;;1.50;0.93;;;20.80;96.70;;;;;;5082586;28;20700;-79
2022/06/11 02:54:15;;;;;;;2.22;0.85;;;20.70;96.70;;;;;;5062552;28;20043;-79
2022/06/11 02:56:43;;;;;;;2.33;0.90;;;20.60;96.70;;;;;;5060363;28;20036;-79
2022/06/11 02:59:11;;;;;;;2.45;0.85;;;20.60;96.70;;;;;;5072877;28;20048;-79
2022/06/11 03:01:40;;;;;;;2.38;0.93;;;20.50;96.70;;;;;;5075844;28;20084;-79
2022/06/11 03:04:08;;;;;;;1.77;0.80;;;20.40;96.70;;;;;;5077795;28;20510;-79
2022/06/11 03:06:42;;;;;;;2.10;0.85;;;20.40;96.70;;;;;;5075511;28;20048;-79
2022/06/11 03:09:12;;;;;;;1.73;0.90;;;20.40;96.70;;;;;;5083249;28;20042;-80
2022/06/11 03:11:41;;;;;;;4.50;1.27;;;20.50;96.70;;;;;;5071994;28;20408;-79
2022/06/11 03:14:14;;;;;;;1.95;0.98;;;20.60;96.70;;;;;;5085758;28;20089;-79
2022/06/11 03:16:43;;;;;;;2.60;0.98;;;20.50;96.70;;;;;;5057405;28;20036;-80
2022/06/11 03:19:11;;;;;;;2.65;0.90;;;20.40;96.70;;;;;;5078836;28;20505;-79
2022/06/11 03:21:41;;;;;;;2.28;0.90;;;20.30;96.70;;;;;;5070723;28;20039;-79
2022/06/11 03:24:09;;;;;;;2.78;0.93;;;20.00;96.70;;;;;;5074863;28;20044;-79
2022/06/11 03:26:37;;;;;;;3.33;0.90;;;20.10;96.70;;;;;;5074520;28;20475;-79
2022/06/11 03:29:05;;;;;;;6.22;1.15;;;20.10;96.70;;;;;;5079340;28;20468;-79
2022/06/11 03:31:33;;;;;;;2.63;0.85;;;20.20;96.70;;;;;;5073675;28;20039;-80
2022/06/11 03:34:02;;;;;;;1.40;0.80;;;20.20;96.70;;;;;;5076801;28;20067;-79
2022/06/11 03:36:31;;;;;;;5.32;1.13;;;20.20;96.70;;;;;;5076123;28;20658;-79
2022/06/11 03:39:00;;;;;;;1.52;0.98;;;20.20;96.70;;;;;;5077593;28;20040;-79
2022/06/11 03:41:28;;;;;;;2.50;1.30;;;20.10;96.70;;;;;;5057075;28;20573;-79
2022/06/11 03:43:56;;;;;;;4.05;1.55;;;20.10;96.70;;;;;;5055330;28;20592;-79
2022/06/11 03:46:24;;;;;;;3.55;1.50;;;20.00;96.70;;;;;;5078793;28;20036;-80
2022/06/11 03:48:53;;;;;;;3.17;1.50;;;20.00;96.70;;;;;;5078716;28;20040;-79
2022/06/11 03:51:20;;;;;;;2.92;1.33;;;20.10;96.70;;;;;;5078421;28;20105;-79
2022/06/11 03:53:49;;;;;;;4.55;2.35;;;20.20;96.70;;;;;;5080667;28;20036;-80
2022/06/11 03:56:18;;;;;;;5.85;3.25;;;20.30;96.70;;;;;;5075067;28;20486;-79
2022/06/11 03:59:20;;;;;;;5.00;2.97;;;20.20;96.70;;;;;;5083189;28;20912;-79
2022/06/11 04:01:48;;;;;;;7.20;3.83;;;20.30;96.70;;;;;;5077520;28;20044;-80
2022/06/11 04:04:19;;;;;;;8.80;4.35;;;20.30;96.70;;;;;;5082608;28;20051;-79
2022/06/11 04:06:50;;;;;;;6.43;2.53;;;20.30;96.70;;;;;;5080661;28;20432;-79
2022/06/11 04:09:22;;;;;;;3.53;1.70;;;20.20;96.70;;;;;;5078485;28;20474;-80
2022/06/11 04:11:52;;;;;;;2.08;1.05;;;20.00;96.70;;;;;;5078769;28;20048;-79
2022/06/11 04:14:20;;;;;;;2.42;1.13;;;20.00;96.70;;;;;;5081989;28;20048;-80
2022/06/11 04:16:51;;;;;;;4.60;1.15;;;19.90;96.70;;;;;;5081881;28;20039;-79
2022/06/11 04:19:23;;;;;;;3.05;0.93;;;19.90;96.70;;;;;;5081220;28;20214;-79
2022/06/11 04:21:52;;;;;;;4.53;1.02;;;20.00;96.70;;;;;;5080156;28;20532;-79
2022/06/11 04:24:20;;;;;;;1.75;0.90;;;20.00;96.70;;;;;;5059450;28;20048;-79
2022/06/11 04:26:53;;;;;;;3.08;0.98;;;20.00;96.70;;;;;;5078057;28;20080;-79
2022/06/11 04:29:29;;;;;;;3.00;1.00;;;19.90;96.70;;;;;;5061352;28;20044;-80
2022/06/11 04:31:59;;;;;;;3.15;1.00;;;20.00;96.70;;;;;;5076294;28;20056;-79
2022/06/11 04:34:29;;;;;;;5.82;1.33;;;20.10;96.70;;;;;;5080709;28;20051;-80
2022/06/11 04:36:59;;;;;;;3.75;1.27;;;20.10;96.70;;;;;;5084887;28;20046;-78
2022/06/11 04:39:30;;;;;;;4.13;1.30;;;20.10;96.70;;;;;;5077479;28;20493;-79
2022/06/11 04:42:01;;;;;;;2.85;1.10;;;20.20;96.70;;;;;;5077355;28;20043;-79
2022/06/11 04:44:29;;;;;;;3.67;1.27;;;20.30;96.70;;;;;;5077403;28;20047;-80
2022/06/11 04:46:57;;;;;;;1.67;1.17;;;20.30;96.70;;;;;;5084267;28;20047;-80
2022/06/11 04:49:26;;;;;;;3.50;1.80;;;20.30;96.70;;;;;;5081181;28;20040;-79
2022/06/11 04:51:54;;;;;;;4.05;1.25;;;20.40;96.70;;;;;;5078692;28;20056;-80
2022/06/11 04:54:22;;;;;;;5.32;2.10;;;20.50;96.70;;;;;;5080615;28;20039;-80
2022/06/11 04:56:49;;;;;;;3.13;1.30;;;20.60;96.70;;;;;;5083008;28;20497;-80
2022/06/11 04:59:19;;;;;;;5.13;2.17;;;20.60;96.70;;;;;;5074003;28;20052;-81
2022/06/11 05:01:47;;;;;;;4.25;2.28;;;20.60;96.70;;;;;;5059407;28;20040;-80
2022/06/11 05:04:15;;;;;;;5.15;2.20;;;20.60;96.70;;;;;;5078574;28;20047;-80
2022/06/11 05:06:51;;;;;;;6.18;3.03;;;20.60;96.70;;;;;;5067970;28;20045;-80
2022/06/11 05:09:22;;;;;;;5.80;2.78;;;20.70;96.70;;;;;;5078244;28;20032;-80
2022/06/11 05:11:52;;;;;;;6.53;2.15;;;20.70;96.70;;;;;;5082618;28;20052;-80
2022/06/11 05:14:24;;;;;;;4.38;1.90;;;20.70;96.70;;;;;;5081627;28;20044;-80
2022/06/11 05:16:56;;;;;;;5.38;1.23;;;20.70;96.70;;;;;;5079359;28;20040;-80
2022/06/11 05:19:25;;;;;;;3.88;1.25;;;20.50;96.70;;;;;;5063826;28;20047;-80
2022/06/11 05:21:53;;;;;;;3.22;1.20;;;20.70;96.70;;;;;;5076694;28;20039;-80
2022/06/11 05:24:22;;;;;;;2.67;1.05;;;20.70;96.70;;;;;;5080751;28;20050;-80
2022/06/11 05:26:53;;;;;;;2.40;0.70;;;20.80;96.70;;;;;;5077028;28;20135;-80
2022/06/11 05:29:26;;;;;;;6.30;1.10;;;20.90;96.70;;;;;;5081269;28;20067;-81
2022/06/11 05:31:54;;;;;;;2.58;1.60;;;20.90;96.70;;;;;;5075580;28;20048;-80
2022/06/11 05:34:25;;;;;;;3.42;1.35;;;21.00;96.70;;;;;;5075345;28;20051;-81
2022/06/11 05:36:54;;;;;;;2.53;1.30;;;21.10;96.70;;;;;;5079759;28;20039;-80
2022/06/11 05:39:22;;;;;;;3.15;1.30;;;21.10;96.70;;;;;;5085471;28;20068;-81
2022/06/11 05:41:50;;;;;;;2.95;1.45;;;21.20;96.70;;;;;;5082680;28;20519;-78
2022/06/11 05:44:18;;;;;;;4.53;1.70;;;21.30;96.70;;;;;;5083116;28;20047;-78
2022/06/11 05:46:48;;;;;;;5.18;2.70;;;21.40;96.70;;;;;;5059893;28;20044;-78
2022/06/11 05:49:20;;;;;;;13.93;5.88;;;21.50;96.70;;;;;;5076644;28;20045;-79
2022/06/11 05:51:52;;;;;;;16.40;7.28;;;21.60;96.70;;;;;;5079809;28;20462;-77
2022/06/11 05:54:24;;;;;;;14.35;7.22;;;21.60;96.70;;;;;;5055790;28;20414;-77
2022/06/11 05:56:53;;;;;;;12.73;6.47;;;21.70;96.70;;;;;;5079674;28;20048;-76
2022/06/11 05:59:26;;;;;;;17.63;6.47;;;21.70;96.70;;;;;;5077456;28;20059;-81
2022/06/11 06:01:56;;;;;;;7.75;4.55;;;21.80;96.70;;;;;;5072286;28;20051;-80
2022/06/11 06:04:24;;;;;;;9.52;4.07;;;21.80;96.70;;;;;;5080017;28;20076;-80
2022/06/11 06:06:52;;;;;;;6.53;3.30;;;21.90;96.70;;;;;;5081082;28;20036;-81
2022/06/11 06:09:20;;;;;;;4.28;2.85;;;22.00;96.70;;;;;;5078304;28;20060;-81
2022/06/11 06:11:48;;;;;;;4.78;2.80;;;22.10;96.70;;;;;;5061755;28;20048;-80
2022/06/11 06:14:16;;;;;;;3.38;2.28;;;22.20;96.70;;;;;;5076413;28;20138;-80
2022/06/11 06:16:44;;;;;;;6.55;1.98;;;22.20;96.70;;;;;;5077817;28;20043;-80
2022/06/11 06:19:14;;;;;;;4.20;1.73;;;22.20;96.70;;;;;;5071328;28;20062;-80
2022/06/11 06:21:42;;;;;;;2.80;1.60;;;22.20;96.70;;;;;;5078775;28;20044;-81
2022/06/11 06:24:10;;;;;;;3.33;1.13;;;22.20;96.70;;;;;;5081706;28;20140;-81
2022/06/11 06:26:38;;;;;;;4.00;1.90;;;22.30;96.70;;;;;;5080351;28;20063;-79
2022/06/11 06:29:07;;;;;;;2.90;1.30;;;22.40;96.70;;;;;;5079545;28;20049;-79
2022/06/11 06:31:37;;;;;;;3.40;1.52;;;22.60;96.70;;;;;;5081256;28;20404;-79
2022/06/11 06:34:05;;;;;;;3.28;1.60;;;22.50;96.70;;;;;;5065873;28;20470;-79
2022/06/11 06:36:35;;;;;;;3.30;1.30;;;22.60;96.70;;;;;;5081503;28;20528;-78
2022/06/11 06:39:03;;;;;;;3.65;1.17;;;22.60;96.70;;;;;;5064328;28;20557;-78
2022/06/11 06:41:31;;;;;;;3.90;1.38;;;22.70;96.70;;;;;;5065489;28;20045;-83
2022/06/11 06:43:59;;;;;;;1.50;0.95;;;22.80;96.70;;;;;;5073755;28;20040;-78
2022/06/11 06:46:27;;;;;;;2.22;1.30;;;22.90;96.70;;;;;;5075126;28;20040;-78
2022/06/11 06:48:56;;;;;;;3.40;1.40;;;22.90;96.70;;;;;;5073237;28;20046;-78
2022/06/11 06:51:24;;;;;;;1.90;1.30;;;23.00;96.70;;;;;;5057305;28;20036;-78
2022/06/11 06:53:53;;;;;;;3.80;1.13;;;23.00;96.70;;;;;;5083404;28;20044;-78
2022/06/11 06:56:25;;;;;;;4.47;1.08;;;23.20;96.70;;;;;;5079678;28;20040;-79
2022/06/11 06:58:53;;;;;;;3.80;1.20;;;23.30;96.70;;;;;;5076656;28;20138;-78
2022/06/11 07:01:21;;;;;;;1.88;1.20;;;23.30;96.70;;;;;;5079615;28;20036;-78
2022/06/11 07:03:49;;;;;;;2.78;1.17;;;23.40;96.70;;;;;;5081182;28;20043;-78
2022/06/11 07:06:37;;;;;;;2.80;1.30;;;23.50;96.70;;;;;;5070788;28;20484;-79
2022/06/11 07:09:08;;;;;;;1.65;1.23;;;23.60;96.70;;;;;;5072666;28;20127;-78
2022/06/11 07:11:35;;;;;;;3.20;1.35;;;23.70;96.70;;;;;;5078903;28;20049;-79
2022/06/11 07:14:03;;;;;;;1.52;0.98;;;23.80;96.70;;;;;;5077158;28;20067;-79
2022/06/11 07:16:36;;;;;;;4.22;1.27;;;23.90;96.70;;;;;;5074508;28;20639;-79
2022/06/11 07:19:09;;;;;;;4.53;2.13;;;24.00;96.70;;;;;;5079510;28;20048;-79
2022/06/11 07:21:40;;;;;;;4.03;1.40;;;24.10;96.70;;;;;;5077258;28;20075;-79
2022/06/11 07:24:14;;;;;;;4.63;1.48;;;24.30;96.70;;;;;;5078249;28;20059;-79
2022/06/11 07:26:44;;;;;;;3.28;1.30;;;24.40;96.70;;;;;;5076511;28;20078;-79
2022/06/11 07:29:17;;;;;;;2.63;1.60;;;24.50;96.70;;;;;;5075741;28;20052;-79
2022/06/11 07:31:48;;;;;;;2.67;1.27;;;24.60;96.70;;;;;;5071155;28;20064;-79
2022/06/11 07:34:17;;;;;;;3.08;1.88;;;24.80;96.70;;;;;;5076363;28;20581;-80
2022/06/11 07:36:45;;;;;;;3.35;1.90;;;24.90;96.70;;;;;;5072673;28;20612;-79
2022/06/11 07:39:15;;;;;;;5.03;1.92;;;24.90;96.70;;;;;;5058792;28;20072;-80
2022/06/11 07:41:43;;;;;;;6.88;2.53;;;25.00;96.70;;;;;;5056707;28;20049;-79
2022/06/11 07:44:11;;;;;;;3.78;2.00;;;25.10;96.70;;;;;;5069568;28;20052;-79
2022/06/11 07:46:39;;;;;;;4.50;2.28;;;25.10;96.70;;;;;;5084988;28;20040;-80
2022/06/11 07:49:07;;;;;;;3.33;1.80;;;25.20;96.70;;;;;;5077491;28;20058;-79
2022/06/11 07:51:35;;;;;;;2.85;1.75;;;25.30;96.70;;;;;;5083008;28;20044;-79
2022/06/11 07:54:03;;;;;;;3.75;1.80;;;25.50;96.70;;;;;;5079576;28;20068;-80
2022/06/11 07:56:47;;;;;;;3.58;1.60;;;25.60;96.70;;;;;;5090689;28;20037;-78
2022/06/11 07:59:15;;;;;;;4.20;1.42;;;25.60;96.70;;;;;;5088743;28;20063;-79
2022/06/11 08:01:43;;;;;;;5.43;1.65;;;25.70;96.70;;;;;;5076008;28;20118;-80
2022/06/11 08:04:12;;;;;;;3.05;1.40;;;25.70;96.70;;;;;;5076466;28;20048;-80
2022/06/11 08:06:40;;;;;;;2.20;1.08;;;25.80;96.70;;;;;;5079619;28;20101;-78
2022/06/11 08:09:08;;;;;;;2.92;1.00;;;25.80;96.70;;;;;;5079888;28;20044;-78
2022/06/11 08:11:36;;;;;;;1.80;1.23;;;25.90;96.70;;;;;;5079319;28;20082;-78
2022/06/11 08:14:05;;;;;;;2.13;1.05;;;26.10;96.70;;;;;;5089904;28;20047;-79
2022/06/11 08:16:33;;;;;;;3.00;1.10;;;26.20;96.70;;;;;;5084342;28;20055;-79
2022/06/11 08:19:01;;;;;;;1.67;1.20;;;26.20;96.70;;;;;;5086526;28;20031;-79
2022/06/11 08:21:29;;;;;;;4.25;1.00;;;26.20;96.70;;;;;;5074727;28;20079;-80
2022/06/11 08:23:57;;;;;;;1.77;1.10;;;26.40;96.70;;;;;;5080510;28;20543;-79
2022/06/11 08:26:25;;;;;;;1.15;1.05;;;26.40;96.70;;;;;;5078479;28;20067;-79
2022/06/11 08:28:52;;;;;;;2.20;1.45;;;26.50;96.70;;;;;;5090255;28;20066;-79
2022/06/11 08:31:22;;;;;;;1.45;1.10;;;26.70;96.70;;;;;;5060772;28;20060;-79
2022/06/11 08:33:50;;;;;;;1.55;1.05;;;26.80;96.70;;;;;;5075850;28;20419;-80
2022/06/11 08:36:18;;;;;;;3.70;1.35;;;26.80;96.70;;;;;;5081160;28;20055;-80
2022/06/11 08:38:46;;;;;;;1.58;1.05;;;26.90;96.70;;;;;;5082917;28;20065;-80
2022/06/11 08:41:18;;;;;;;3.22;1.17;;;27.10;96.70;;;;;;5070916;28;20409;-80
2022/06/11 08:43:58;;;;;;;1.27;0.93;;;27.20;96.70;;;;;;5076379;28;20040;-80
2022/06/11 08:46:32;;;;;;;1.02;0.90;;;27.30;96.70;;;;;;5079973;28;20657;-80
2022/06/11 08:49:10;;;;;;;3.08;1.00;;;27.40;96.70;;;;;;5083011;28;20036;-80
2022/06/11 08:51:44;;;;;;;1.83;1.00;;;27.40;96.70;;;;;;5074290;28;20557;-80
2022/06/11 08:54:15;;;;;;;1.42;0.93;;;27.50;96.20;;;;;;5061848;28;20164;-79
2022/06/11 08:56:50;;;;;;;1.75;0.90;;;27.50;95.00;;;;;;5085394;28;20049;-80
2022/06/11 08:59:45;;;;;;;2.72;1.00;;;27.60;94.20;;;;;;5073701;28;20096;-79
2022/06/11 09:02:46;;;;;;;1.25;0.80;;;27.60;94.70;;;;;;5077326;28;20056;-79
2022/06/11 09:05:27;;;;;;;1.05;0.80;;;27.70;93.40;;;;;;5080037;28;20051;-79
2022/06/11 09:08:08;;;;;;;1.25;0.85;;;27.80;94.00;;;;;;5061475;28;20523;-79
2022/06/11 09:10:57;;;;;;;2.38;0.90;;;28.00;94.10;;;;;;5062174;28;20084;-79
2022/06/11 09:13:57;;;;;;;2.65;0.90;;;27.90;92.70;;;;;;5076918;28;20047;-80
2022/06/11 09:16:37;;;;;;;1.33;0.80;;;28.00;92.20;;;;;;5086366;28;20638;-81
2022/06/11 09:19:24;;;;;;;1.50;0.90;;;27.90;92.40;;;;;;5075787;28;20144;-82
2022/06/11 09:22:08;;;;;;;2.25;1.00;;;28.20;92.30;;;;;;5077873;28;20143;-82
2022/06/11 09:24:50;;;;;;;0.82;0.80;;;28.30;92.20;;;;;;5062995;28;20113;-80
2022/06/11 09:27:29;;;;;;;0.95;0.73;;;28.30;92.40;;;;;;5071300;28;20063;-80
2022/06/11 09:30:05;;;;;;;0.90;0.73;;;28.20;92.60;;;;;;5060431;28;20402;-79
2022/06/11 09:32:40;;;;;;;1.65;1.00;;;28.20;92.60;;;;;;5078988;28;20048;-79
2022/06/11 09:35:17;;;;;;;3.28;1.08;;;28.20;93.00;;;;;;5076696;28;20108;-78
2022/06/11 09:37:55;;;;;;;2.15;1.00;;;28.30;93.20;;;;;;5073599;28;20563;-79
2022/06/11 09:40:31;;;;;;;2.75;1.05;;;28.30;92.60;;;;;;5074819;28;20055;-78
2022/06/11 09:43:22;;;;;;;2.83;1.00;;;28.30;91.30;;;;;;5077952;28;20054;-78
2022/06/11 09:45:59;;;;;;;1.70;1.00;;;28.20;91.20;;;;;;5081159;28;20052;-78
2022/06/11 09:48:43;;;;;;;1.45;1.00;;;28.30;92.20;;;;;;5092521;28;20587;-78
2022/06/11 09:51:22;;;;;;;2.85;0.90;;;28.30;92.70;;;;;;5076214;28;20046;-78
2022/06/11 09:54:02;;;;;;;2.15;1.00;;;28.50;92.50;;;;;;5078244;28;20040;-78
2022/06/11 09:56:46;;;;;;;1.83;0.90;;;28.60;92.60;;;;;;5062724;28;20048;-78
2022/06/11 09:59:29;;;;;;;1.38;1.23;;;28.60;92.40;;;;;;5073080;28;20044;-79
2022/06/11 10:02:02;;;;;;;1.60;0.90;;;28.60;92.20;;;;;;5077317;28;20043;-80
2022/06/11 10:04:35;;;;;;;1.00;0.90;;;28.60;91.10;;;;;;5077758;28;20048;-80
2022/06/11 10:07:10;;;;;;;3.45;1.00;;;28.70;91.40;;;;;;5075742;28;20040;-78
2022/06/11 10:09:43;;;;;;;1.70;0.80;;;28.80;91.20;;;;;;5072701;28;20044;-78
2022/06/11 10:12:18;;;;;;;4.10;0.93;;;28.90;91.40;;;;;;5081312;28;21147;-78
2022/06/11 10:14:52;;;;;;;3.67;1.25;;;29.00;90.40;;;;;;5081648;28;20039;-79
2022/06/11 10:17:28;;;;;;;0.77;0.60;;;29.10;89.40;;;;;;5077438;28;20044;-78
2022/06/11 10:20:01;;;;;;;1.55;0.70;;;29.30;89.60;;;;;;5076678;28;20043;-78
2022/06/11 10:22:34;;;;;;;1.38;0.80;;;29.40;90.30;;;;;;5066878;28;20476;-78
2022/06/11 10:25:19;;;;;;;2.00;0.90;;;29.50;89.80;;;;;;5087549;28;20146;-78
2022/06/11 10:27:55;;;;;;;0.57;0.50;;;29.70;89.60;;;;;;5082033;28;20076;-78
2022/06/11 10:30:33;;;;;;;0.80;0.70;;;29.70;89.20;;;;;;5078275;28;20055;-79
2022/06/11 10:33:09;;;;;;;1.02;0.73;;;29.80;88.20;;;;;;5073663;28;20036;-78
2022/06/11 10:35:42;;;;;;;1.45;0.70;;;29.70;88.30;;;;;;5066017;28;20068;-78
2022/06/11 10:38:26;;;;;;;0.95;0.82;;;29.70;88.10;;;;;;5075673;28;20043;-78
2022/06/11 10:40:56;;;;;;;0.80;0.70;;;29.80;87.90;;;;;;5082845;28;20486;-80
2022/06/11 10:43:32;;;;;;;0.93;0.50;;;29.80;87.70;;;;;;5072924;28;20053;-79
2022/06/11 10:46:01;;;;;;;2.90;1.00;;;30.00;87.50;;;;;;5082317;28;20047;-79
2022/06/11 10:48:33;;;;;;;3.45;0.80;;;30.10;87.60;;;;;;5075447;28;20090;-80
2022/06/11 10:51:07;;;;;;;1.20;0.85;;;30.30;87.90;;;;;;5095858;28;20778;-80
2022/06/11 10:53:43;;;;;;;1.55;0.85;;;30.30;87.50;;;;;;5077063;28;20043;-80
2022/06/11 10:56:16;;;;;;;1.73;1.17;;;30.60;87.00;;;;;;5066179;28;20055;-78
2022/06/11 10:58:47;;;;;;;2.00;0.70;;;30.60;87.60;;;;;;5079035;28;20579;-80
2022/06/11 11:01:22;;;;;;;0.80;0.60;;;30.80;87.50;;;;;;5079279;28;20052;-79
2022/06/11 11:03:57;;;;;;;2.40;0.60;;;30.90;86.70;;;;;;5078409;28;20140;-80
2022/06/11 11:06:27;;;;;;;0.80;0.80;;;30.90;86.40;;;;;;5082582;28;20036;-80
2022/06/11 11:08:59;;;;;;;2.92;0.90;;;30.80;86.00;;;;;;5079022;28;20413;-80
2022/06/11 11:11:31;;;;;;;1.15;0.60;;;31.00;86.70;;;;;;5082129;28;20039;-79
2022/06/11 11:14:13;;;;;;;0.70;0.70;;;31.00;86.10;;;;;;5074015;28;20057;-79
2022/06/11 11:16:47;;;;;;;1.05;0.80;;;31.00;86.00;;;;;;5058194;28;20066;-78
2022/06/11 11:19:19;;;;;;;2.78;0.60;;;31.20;86.60;;;;;;5075665;28;20052;-79
2022/06/11 11:21:54;;;;;;;2.10;0.70;;;31.40;85.60;;;;;;5084813;28;20519;-78
2022/06/11 11:24:29;;;;;;;1.48;0.73;;;31.40;85.60;;;;;;5085643;28;20097;-78
2022/06/11 11:27:00;;;;;;;2.25;0.70;;;31.30;85.60;;;;;;5057216;28;20139;-78
2022/06/11 11:29:33;;;;;;;3.92;0.90;;;31.40;85.10;;;;;;5076587;28;20125;-78
2022/06/11 11:32:06;;;;;;;1.70;0.80;;;31.60;84.10;;;;;;5055768;28;20171;-80
2022/06/11 11:34:43;;;;;;;0.55;0.50;;;31.70;84.60;;;;;;5072277;28;20040;-80
2022/06/11 11:37:24;;;;;;;2.15;0.70;;;31.70;83.70;;;;;;5076719;28;20508;-81
2022/06/11 11:39:55;;;;;;;1.38;0.80;;;31.90;84.10;;;;;;5072408;28;20584;-80
2022/06/11 11:42:25;;;;;;;2.05;0.90;;;32.20;83.90;;;;;;5068812;28;20048;-80
2022/06/11 11:44:59;;;;;;;1.33;0.90;;;32.50;84.30;;;;;;5081597;28;20067;-78
2022/06/11 11:47:33;;;;;;;1.08;0.75;;;32.50;83.80;;;;;;5074088;28;20118;-80
2022/06/11 11:50:08;;;;;;;7.22;6.53;;;32.50;83.70;;;;;;5080896;28;20100;-80
2022/06/11 11:52:41;;;;;;;1.00;0.90;;;32.70;84.10;;;;;;5076972;28;20044;-78
2022/06/11 11:55:19;;;;;;;2.08;0.70;;;32.80;82.90;;;;;;5075698;28;20521;-81
2022/06/11 11:57:55;;;;;;;1.27;0.80;;;33.00;81.70;;;;;;5079385;28;20100;-81
2022/06/11 12:00:39;;;;;;;1.40;0.70;;;33.00;81.40;;;;;;5086556;28;20046;-80
2022/06/11 12:03:21;;;;;;;1.05;0.60;;;32.60;82.10;;;;;;5016839;28;20133;-81
2022/06/11 12:05:52;;;;;;;2.65;0.70;;;32.20;82.50;;;;;;5077570;28;20106;-80
2022/06/11 12:08:25;;;;;;;0.80;0.80;;;31.90;83.60;;;;;;5074204;28;20056;-78
2022/06/11 12:11:31;;;;;;;0.70;0.50;;;31.70;84.40;;;;;;5071209;28;20040;-80
2022/06/11 12:14:01;;;;;;;2.08;0.75;;;31.70;83.60;;;;;;5077217;28;20743;-80
2022/06/11 12:16:35;;;;;;;2.00;0.75;;;31.90;83.40;;;;;;5064306;28;20075;-79
2022/06/11 12:19:22;;;;;;;1.00;0.70;;;32.00;84.20;;;;;;5078897;28;20397;-80
2022/06/11 12:21:55;;;;;;;0.65;0.60;;;32.30;84.00;;;;;;5075598;28;20047;-79
2022/06/11 12:24:28;;;;;;;1.42;0.65;;;32.70;83.30;;;;;;5073125;28;20332;-79
2022/06/11 12:27:03;;;;;;;1.08;0.80;;;32.60;82.70;;;;;;5079192;28;20048;-80
2022/06/11 12:29:35;;;;;;;2.80;1.10;;;32.80;82.50;;;;;;5079057;28;20064;-80
2022/06/11 12:32:13;;;;;;;1.27;0.77;;;32.80;82.40;;;;;;5078273;28;20043;-80
2022/06/11 12:34:41;;;;;;;1.95;0.70;;;32.70;81.80;;;;;;5060878;28;20051;-79
2022/06/11 12:37:19;;;;;;;2.92;0.70;;;32.70;82.00;;;;;;5073676;28;20052;-80
2022/06/11 12:40:06;;;;;;;;;;;32.40;82.20;;;;;;5079367;28;20124;-81
2022/06/11 12:42:44;;;;;;;1.95;0.70;;;32.00;82.30;;;;;;5084096;28;19924;-81
2022/06/11 12:45:20;;;;;;;0.63;0.57;;;31.90;82.50;;;;;;5078391;28;20138;-80
2022/06/11 12:48:00;;;;;;;;;;;32.10;82.60;;;;;;5090799;28;20127;-80
2022/06/11 12:50:53;;;;;;;0.65;0.65;;;32.30;82.10;;;;;;5078872;28;19931;-81
2022/06/11 12:53:29;;;;;;;1.55;0.73;;;32.60;82.80;;;;;;5081694;28;20407;-82
2022/06/11 12:56:19;;;;;;;2.05;0.70;;;32.90;81.30;;;;;;5084766;28;20093;-80
2022/06/11 12:59:15;;;;;;;0.50;0.50;;;33.10;81.90;;;;;;5079160;28;20049;-80
2022/06/11 13:01:50;;;;;;;1.87;0.67;;;33.30;80.40;;;;;;5077495;28;20037;-80
2022/06/11 13:04:41;;;;;;;1.05;0.70;;;33.50;81.50;;;;;;5081237;28;20059;-79
2022/06/11 13:07:19;;;;;;;0.60;0.60;;;33.50;81.20;;;;;;5081360;28;20048;-79
2022/06/11 13:10:05;;;;;;;1.25;0.70;;;33.60;81.00;;;;;;5059268;28;20506;-81
2022/06/11 13:12:59;;;;;;;7.18;6.47;;;34.20;81.00;;;;;;5079043;28;20599;-80
2022/06/11 13:15:49;;;;;;;7.57;6.97;;;34.60;79.00;;;;;;5059853;28;20081;-80
2022/06/11 13:19:10;;;;;;;7.15;1.60;;;34.60;79.80;;;;;;5079893;28;20079;-80
2022/06/11 13:21:46;;;;;;;2.70;0.90;;;35.00;78.90;;;;;;4997651;28;20060;-80